Terminal Aerodrome Forecast
Issued by NWS

Home | Current Version | Previous Version | Text Only | Print | Product List | Glossary On
Versions: 1 2 3 4 5 6 7 8 9 10 11 12 13
939
FTPA31 PHFO 221720
TAFHJH
TAF
PHJH 221720Z 2218/2318 05016G25KT P6SM FEW030 BKN050
     FM230600 05014KT P6SM VCSH FEW030 BKN050
      AMD NOT SKED AFT 230400=

USA.gov is the U.S. government's official web portal to all federal, state and local government web resources and services.